KOKC/OKC METAR and TAF weather

Enter ICAO airport designator
Station Type Date Time Source
KOKC METAR 2021/09/19 13:52 UTC NOAA

KOKC 191352Z 16008KT 9SM FEW250 23/19 A3001 RMK AO2 SLP148 T02280189 $


Station Type Date Time Source
KOKC Decoded METAR 2021/09/19 13:52 UTC NOAA

WILL ROGERS WORLD AIRPORT, OK, United States (KOKC) 35-23N 97-36W 390M
Sep 19, 2021 - 09:52 AM EDT / 2021.09.19 1352 UTC
Wind: from the SSE (160 degrees) at 9 MPH (8 KT):0
Visibility: 9 mile(s):0
Sky conditions: mostly clear
Temperature: 73.0 F (22.8 C)
Dew Point: 66.0 F (18.9 C)
Relative Humidity: 78%
Pressure (altimeter): 30.01 in. Hg (1016 hPa)
ob: KOKC 191352Z 16008KT 9SM FEW250 23/19 A3001 RMK AO2 SLP148 T02280189
cycle: 14

Station Type Date Time Source
KOKC TAF 2021/09/19 12:22 UTC NOAA

TAF KOKC 191120Z 1912/2012 18008KT P6SM SKC
FM192300 16011G17KT P6SM SCT120

Example: see airport list